Time;durP1;ratioP1;P1;durP2;ratioP2;P2;SDS_P1;SDS_P2;PMS_P1;PMS_P2;Temp;Humidity;BMP_temperature;BMP_pressure;BME280_temperature;BME280_humidity;BME280_pressure;Samples;Min_cycle;Max_cycle;Signal;HPM_P1;HPM_P2
2023/12/19 00:02:11;;;;;;;11.77;5.63;;;5.10;99.90;;;4.87;100.00;102151.16;5197553;28;20424;-48
2023/12/19 00:04:44;;;;;;;11.30;5.38;;;5.10;99.90;;;4.87;100.00;102149.47;5201150;28;20060;-49
2023/12/19 00:07:17;;;;;;;12.82;5.45;;;5.10;99.90;;;4.88;100.00;102161.59;5182396;28;20060;-48
2023/12/19 00:09:50;;;;;;;14.32;5.50;;;5.10;99.90;;;4.89;100.00;102162.53;5200020;28;20056;-48
2023/12/19 00:12:22;;;;;;;12.25;5.68;;;5.10;99.90;;;4.93;100.00;102167.13;5183363;28;20691;-49
2023/12/19 00:14:58;;;;;;;10.43;5.30;;;5.10;99.90;;;4.91;100.00;102158.38;5207978;28;20520;-49
2023/12/19 00:17:30;;;;;;;11.32;5.00;;;5.10;99.90;;;4.91;100.00;102160.97;5182116;28;20062;-48
2023/12/19 00:20:03;;;;;;;9.95;4.65;;;5.10;99.90;;;4.93;100.00;102163.66;5182835;28;20053;-49
2023/12/19 00:22:36;;;;;;;11.32;5.35;;;5.20;99.90;;;4.94;100.00;102140.50;5199976;28;20049;-48
2023/12/19 00:25:09;;;;;;;10.57;4.85;;;5.20;99.90;;;4.97;100.00;102138.19;5194330;28;20509;-48
2023/12/19 00:27:41;;;;;;;11.80;5.50;;;5.20;99.90;;;4.98;100.00;102142.56;5180990;28;20049;-49
2023/12/19 00:30:14;;;;;;;13.27;5.55;;;5.20;99.90;;;4.97;100.00;102145.94;5185247;28;20040;-49
2023/12/19 00:32:47;;;;;;;12.18;5.45;;;5.20;99.90;;;4.99;100.00;102140.88;5177246;28;20053;-49
2023/12/19 00:35:19;;;;;;;10.25;4.78;;;5.20;99.90;;;5.00;100.00;102141.00;5200103;28;20061;-48
2023/12/19 00:37:53;;;;;;;10.30;5.30;;;5.20;99.90;;;5.01;100.00;102135.03;5214472;28;20461;-48
2023/12/19 00:40:26;;;;;;;12.40;5.57;;;5.20;99.90;;;5.02;100.00;102125.59;5193074;28;20045;-49
2023/12/19 00:42:58;;;;;;;12.50;5.10;;;5.20;99.90;;;5.02;100.00;102116.19;5194552;28;20056;-49
2023/12/19 00:45:30;;;;;;;13.13;5.30;;;5.20;99.90;;;5.01;100.00;102109.19;5185071;28;20045;-49
2023/12/19 00:48:03;;;;;;;13.27;6.15;;;5.30;99.90;;;5.00;100.00;102104.81;5199431;28;20063;-49
2023/12/19 00:50:36;;;;;;;11.77;5.10;;;5.20;99.90;;;5.00;100.00;102114.25;5204970;28;20053;-48
2023/12/19 00:53:10;;;;;;;12.38;5.18;;;5.20;99.90;;;4.98;100.00;102111.56;5186546;28;20132;-49
2023/12/19 00:55:43;;;;;;;13.65;5.35;;;5.20;99.90;;;5.00;100.00;102109.06;5185078;28;20061;-49
2023/12/19 00:58:15;;;;;;;14.57;5.72;;;5.20;99.90;;;4.99;100.00;102109.88;5181704;28;20063;-49
2023/12/19 01:00:47;;;;;;;11.75;5.47;;;5.20;99.90;;;4.98;100.00;102111.56;5199321;28;20041;-48
2023/12/19 01:03:23;;;;;;;12.80;5.75;;;5.20;99.90;;;4.97;100.00;102120.09;5184819;28;20057;-48
2023/12/19 01:05:55;;;;;;;11.05;5.00;;;5.20;99.90;;;4.97;100.00;102121.78;5194250;28;20136;-48
2023/12/19 01:08:29;;;;;;;9.32;4.82;;;5.20;99.90;;;4.98;100.00;102119.31;5179867;28;20049;-49
2023/12/19 01:11:02;;;;;;;11.25;5.35;;;5.20;99.90;;;5.02;100.00;102113.59;5195665;28;20045;-48
2023/12/19 01:13:34;;;;;;;11.52;5.30;;;5.30;99.90;;;5.06;100.00;102118.22;5201461;28;20053;-49
2023/12/19 01:16:08;;;;;;;12.00;4.75;;;5.30;99.90;;;5.06;100.00;102119.91;5206784;28;20042;-49
2023/12/19 01:18:40;;;;;;;10.45;4.78;;;5.30;99.90;;;5.07;100.00;102112.25;5176932;28;20485;-48
2023/12/19 01:21:12;;;;;;;12.20;4.95;;;5.30;99.90;;;5.11;100.00;102098.81;5210529;28;20053;-50
2023/12/19 01:23:46;;;;;;;12.55;5.38;;;5.30;99.90;;;5.09;100.00;102099.47;5182933;28;20413;-48
2023/12/19 01:26:18;;;;;;;10.20;5.00;;;5.40;99.90;;;5.07;100.00;102104.50;5195195;28;20049;-49
2023/12/19 01:28:51;;;;;;;11.82;5.82;;;5.30;99.90;;;5.10;100.00;102091.84;5201186;28;20408;-49
2023/12/19 01:31:23;;;;;;;11.60;4.63;;;5.40;99.90;;;5.11;100.00;102096.22;5182185;28;20061;-49
2023/12/19 01:33:56;;;;;;;13.32;5.57;;;5.30;99.90;;;5.11;100.00;102093.63;5195923;28;20065;-49
2023/12/19 01:36:29;;;;;;;11.68;4.85;;;5.30;99.90;;;5.11;100.00;102091.03;5181430;28;20584;-49
2023/12/19 01:39:03;;;;;;;11.80;5.13;;;5.40;99.90;;;5.12;100.00;102084.19;5201701;28;20049;-49
2023/12/19 01:41:35;;;;;;;12.18;4.65;;;5.40;99.90;;;5.14;100.00;102073.16;5188658;28;20266;-49
2023/12/19 01:44:17;;;;;;;9.27;4.55;;;5.40;99.90;;;5.13;100.00;102076.53;5217490;28;20053;-49
2023/12/19 01:46:50;;;;;;;9.90;4.53;;;5.40;99.90;;;5.13;100.00;102079.13;5186038;28;20393;-49
2023/12/19 01:49:23;;;;;;;10.27;4.57;;;5.40;99.90;;;5.16;100.00;102087.13;5183257;28;20053;-50
2023/12/19 01:51:56;;;;;;;9.85;4.35;;;5.40;99.90;;;5.21;100.00;102078.81;5216068;28;20041;-50
2023/12/19 01:54:30;;;;;;;10.15;4.70;;;5.40;99.90;;;5.21;100.00;102068.47;5182590;28;20053;-50
2023/12/19 01:57:02;;;;;;;8.63;4.70;;;5.40;99.90;;;5.22;100.00;102072.88;5185429;28;20049;-49
2023/12/19 01:59:35;;;;;;;9.43;4.18;;;5.40;99.90;;;5.24;100.00;102069.63;5186811;28;20076;-49
2023/12/19 02:02:07;;;;;;;8.15;3.97;;;5.50;99.90;;;5.27;100.00;102072.41;5181387;28;20060;-49
2023/12/19 02:04:40;;;;;;;9.15;4.00;;;5.50;99.90;;;5.31;100.00;102076.16;5181998;28;20149;-49
2023/12/19 02:07:12;;;;;;;9.98;4.38;;;5.50;99.90;;;5.27;100.00;102062.09;5184284;28;20517;-50
2023/12/19 02:09:46;;;;;;;10.20;4.47;;;5.50;99.90;;;5.30;100.00;102066.59;5202466;28;20045;-48
2023/12/19 02:12:19;;;;;;;12.35;4.97;;;5.50;99.90;;;5.29;100.00;102063.13;5180965;28;20038;-48
2023/12/19 02:14:52;;;;;;;9.45;4.55;;;5.50;99.90;;;5.32;100.00;102070.19;5188798;28;20041;-49
2023/12/19 02:17:25;;;;;;;11.38;4.60;;;5.50;99.90;;;5.34;100.00;102058.28;5181588;28;20520;-48
2023/12/19 02:19:59;;;;;;;11.35;4.50;;;5.50;99.90;;;5.33;100.00;102059.06;5182799;28;20041;-49
2023/12/19 02:22:32;;;;;;;11.15;4.63;;;5.60;99.90;;;5.31;100.00;102071.00;5184860;28;20418;-48
2023/12/19 02:25:07;;;;;;;9.32;4.35;;;5.50;99.90;;;5.32;100.00;102062.44;5215636;28;20049;-48
2023/12/19 02:27:40;;;;;;;11.30;4.22;;;5.50;99.90;;;5.34;100.00;102060.84;5201188;28;20053;-48
2023/12/19 02:30:13;;;;;;;10.05;3.85;;;5.60;99.90;;;5.34;100.00;102060.84;5183882;28;20556;-49
2023/12/19 02:32:47;;;;;;;8.50;4.32;;;5.60;99.90;;;5.33;100.00;102049.63;5186938;28;20056;-49
2023/12/19 02:35:19;;;;;;;8.68;4.20;;;5.60;99.90;;;5.33;100.00;102052.22;5183709;28;20463;-48
2023/12/19 02:37:52;;;;;;;9.25;4.00;;;5.60;99.90;;;5.35;100.00;102050.66;5210341;28;20068;-48
2023/12/19 02:40:26;;;;;;;7.80;4.18;;;5.60;99.90;;;5.35;100.00;102050.66;5200017;28;20046;-49
2023/12/19 02:42:58;;;;;;;9.38;4.75;;;5.60;99.90;;;5.37;100.00;102050.75;5180648;28;20037;-49
2023/12/19 02:45:31;;;;;;;9.07;4.32;;;5.60;99.90;;;5.33;100.00;102044.44;5180317;28;20057;-48
2023/12/19 02:48:05;;;;;;;11.32;4.45;;;5.60;99.90;;;5.35;100.00;102040.31;5178711;28;20053;-49
2023/12/19 02:50:37;;;;;;;10.93;4.43;;;5.60;99.90;;;5.33;100.00;102028.03;5205919;28;20424;-49
2023/12/19 02:53:10;;;;;;;9.23;4.70;;;5.60;99.90;;;5.34;100.00;102019.50;5186066;28;20052;-49
2023/12/19 02:55:43;;;;;;;9.95;4.18;;;5.60;99.90;;;5.33;100.00;102017.69;5199902;28;20053;-49
2023/12/19 02:58:16;;;;;;;8.70;4.07;;;5.50;99.90;;;5.32;100.00;102015.91;5193904;28;20124;-49
2023/12/19 03:00:48;;;;;;;8.25;4.22;;;5.50;99.90;;;5.30;100.00;102008.03;5196013;28;20509;-49
2023/12/19 03:03:20;;;;;;;8.32;3.78;;;5.50;99.90;;;5.26;100.00;101998.22;5202595;28;20103;-50
2023/12/19 03:05:53;;;;;;;10.88;4.43;;;5.50;99.90;;;5.29;100.00;101992.41;5178703;28;20058;-50
2023/12/19 03:08:25;;;;;;;10.57;4.60;;;5.60;99.90;;;5.32;100.00;101990.03;5186332;28;20064;-48
2023/12/19 03:10:59;;;;;;;9.70;3.97;;;5.50;99.90;;;5.31;100.00;101983.06;5193092;28;20058;-48
2023/12/19 03:13:31;;;;;;;7.28;3.65;;;5.60;99.90;;;5.34;100.00;101978.13;5184876;28;20054;-49
2023/12/19 03:16:05;;;;;;;8.18;3.33;;;5.60;99.90;;;5.37;100.00;101968.03;5182530;28;20532;-49
2023/12/19 03:18:38;;;;;;;8.13;3.85;;;5.60;99.90;;;5.40;100.00;101960.47;5179022;28;20053;-49
2023/12/19 03:21:10;;;;;;;8.80;3.67;;;5.60;99.90;;;5.41;100.00;101959.69;5186063;28;20053;-49
2023/12/19 03:23:42;;;;;;;9.95;4.25;;;5.60;99.90;;;5.43;100.00;101947.78;5211780;28;20053;-49
2023/12/19 03:26:16;;;;;;;6.63;2.95;;;5.60;99.90;;;5.41;100.00;101933.81;5182071;28;20053;-49
2023/12/19 03:28:49;;;;;;;7.05;3.20;;;5.60;99.90;;;5.43;100.00;101934.84;5197919;28;20540;-49
2023/12/19 03:31:24;;;;;;;8.35;3.38;;;5.60;99.90;;;5.45;100.00;101935.84;5194093;28;20049;-49
2023/12/19 03:33:56;;;;;;;7.68;3.53;;;5.70;99.90;;;5.40;100.00;101926.84;5183807;28;20042;-49
2023/12/19 03:36:29;;;;;;;9.55;4.10;;;5.70;99.90;;;5.40;100.00;101924.25;5200526;28;20045;-49
2023/12/19 03:39:02;;;;;;;8.93;3.67;;;5.60;99.90;;;5.42;100.00;101930.47;5183062;28;20053;-49
2023/12/19 03:41:36;;;;;;;9.25;3.83;;;5.70;99.90;;;5.43;100.00;101921.91;5180096;28;20054;-49
2023/12/19 03:44:08;;;;;;;8.23;3.67;;;5.60;99.90;;;5.48;100.00;101930.00;5197524;28;20052;-49
2023/12/19 03:46:40;;;;;;;8.50;3.88;;;5.70;99.90;;;5.48;100.00;101912.81;5182576;28;20072;-49
2023/12/19 03:49:13;;;;;;;8.32;3.45;;;5.70;99.90;;;5.47;100.00;101918.75;5196816;28;20049;-49
2023/12/19 03:51:47;;;;;;;8.23;3.40;;;5.70;99.90;;;5.46;100.00;101922.13;5202129;28;20142;-50
2023/12/19 03:54:19;;;;;;;7.63;3.53;;;5.70;99.90;;;5.48;100.00;101927.41;5174781;28;20049;-48
2023/12/19 03:56:54;;;;;;;6.47;3.33;;;5.70;99.90;;;5.48;100.00;101930.00;5185736;28;20052;-48
2023/12/19 03:59:30;;;;;;;7.97;3.72;;;5.70;99.90;;;5.45;100.00;101941.03;5193032;28;20045;-49
2023/12/19 04:02:02;;;;;;;7.78;3.28;;;5.70;99.90;;;5.47;100.00;101930.78;5195689;28;20580;-48
2023/12/19 04:04:35;;;;;;;7.40;3.40;;;5.70;99.90;;;5.47;100.00;101921.34;5181025;28;20053;-48
2023/12/19 04:07:08;;;;;;;8.88;3.38;;;5.70;99.90;;;5.50;100.00;101921.59;5214992;28;20045;-50
2023/12/19 04:09:41;;;;;;;6.78;3.40;;;5.70;99.90;;;5.53;100.00;101916.63;5194378;28;20048;-48
2023/12/19 04:12:14;;;;;;;5.93;2.80;;;5.80;99.90;;;5.53;100.00;101903.69;5210796;28;20057;-48
2023/12/19 04:14:47;;;;;;;7.47;3.20;;;5.70;99.90;;;5.52;100.00;101903.56;5198235;28;20042;-49
2023/12/19 04:17:23;;;;;;;7.60;3.40;;;5.70;99.90;;;5.51;100.00;101904.38;5172713;28;20061;-48
2023/12/19 04:19:55;;;;;;;5.93;3.28;;;5.70;99.90;;;5.48;100.00;101899.88;5177026;28;20073;-51
2023/12/19 04:22:27;;;;;;;7.30;3.08;;;5.70;99.90;;;5.46;100.00;101888.50;5200860;28;20068;-49
2023/12/19 04:25:00;;;;;;;7.07;3.45;;;5.70;99.90;;;5.45;100.00;101891.88;5184458;28;20431;-48
2023/12/19 04:27:33;;;;;;;5.82;2.90;;;5.70;99.90;;;5.50;100.00;101890.53;5179882;28;20053;-48
2023/12/19 04:30:08;;;;;;;5.95;2.95;;;5.70;99.90;;;5.48;100.00;101891.19;5189925;28;20049;-49
2023/12/19 04:32:40;;;;;;;5.63;2.88;;;5.70;99.90;;;5.46;100.00;101891.09;5180835;28;20132;-48
2023/12/19 04:35:13;;;;;;;6.85;3.20;;;5.70;99.90;;;5.47;100.00;101900.66;5213939;28;20049;-49
2023/12/19 04:37:46;;;;;;;6.10;2.75;;;5.70;99.90;;;5.49;100.00;101895.59;5201509;28;20122;-50
2023/12/19 04:40:18;;;;;;;6.28;2.55;;;5.80;99.90;;;5.49;100.00;101896.50;5183559;28;20057;-50
2023/12/19 04:42:52;;;;;;;6.57;2.67;;;5.70;99.90;;;5.53;100.00;101889.84;5210638;28;20709;-50
2023/12/19 04:45:24;;;;;;;4.72;2.22;;;5.80;99.90;;;5.55;100.00;101889.19;5183551;28;20520;-50
2023/12/19 04:47:57;;;;;;;5.28;2.58;;;5.80;99.90;;;5.59;100.00;101877.38;5179824;28;20046;-50
2023/12/19 04:50:29;;;;;;;5.00;2.30;;;5.80;99.90;;;5.60;100.00;101874.88;5198448;28;20053;-48
2023/12/19 04:53:02;;;;;;;5.40;2.58;;;5.80;99.90;;;5.64;100.00;101855.31;5197463;28;20501;-49
2023/12/19 04:55:34;;;;;;;9.50;3.03;;;5.80;99.90;;;5.60;100.00;101851.59;5197859;28;20294;-49
2023/12/19 04:58:08;;;;;;;6.30;2.75;;;5.80;99.90;;;5.58;100.00;101845.41;5182951;28;20057;-50
2023/12/19 05:00:40;;;;;;;6.20;2.88;;;5.80;99.90;;;5.58;100.00;101848.00;5200214;28;20120;-48
2023/12/19 05:03:13;;;;;;;5.88;2.90;;;5.80;99.90;;;5.57;100.00;101843.63;5184796;28;20052;-49
2023/12/19 05:05:45;;;;;;;6.00;2.80;;;5.80;99.90;;;5.57;100.00;101859.16;5184091;28;20057;-49
2023/12/19 05:08:17;;;;;;;6.55;3.17;;;5.80;99.90;;;5.60;100.00;101843.84;5183268;28;20056;-48
2023/12/19 05:10:50;;;;;;;5.85;2.97;;;5.80;99.90;;;5.61;100.00;101845.66;5183216;28;20050;-50
2023/12/19 05:13:27;;;;;;;4.88;2.50;;;5.80;99.90;;;5.60;100.00;101842.94;5182892;28;20452;-49
2023/12/19 05:16:01;;;;;;;6.28;3.15;;;5.80;99.90;;;5.57;100.00;101845.31;5182326;28;20499;-49
2023/12/19 05:18:33;;;;;;;6.07;2.70;;;5.80;99.90;;;5.57;100.00;101848.81;5178054;28;20060;-49
2023/12/19 05:21:06;;;;;;;6.32;2.97;;;5.80;99.90;;;5.58;100.00;101850.59;5181971;28;20436;-49
2023/12/19 05:23:40;;;;;;;7.50;2.63;;;5.80;99.90;;;5.57;100.00;101848.81;5182755;28;20512;-50
2023/12/19 05:26:12;;;;;;;5.60;2.63;;;5.80;99.90;;;5.59;100.00;101843.72;5179511;28;20128;-48
2023/12/19 05:28:46;;;;;;;7.20;2.88;;;5.80;99.90;;;5.60;100.00;101837.78;5217560;28;20049;-49
2023/12/19 05:31:19;;;;;;;7.68;3.75;;;5.80;99.90;;;5.59;100.00;101842.03;5172724;28;20596;-48
2023/12/19 05:33:55;;;;;;;6.43;3.28;;;5.80;99.90;;;5.56;100.00;101846.13;5193857;28;20037;-50
2023/12/19 05:36:27;;;;;;;5.72;2.50;;;5.80;99.90;;;5.56;100.00;101849.59;5176491;28;20496;-49
2023/12/19 05:39:00;;;;;;;5.43;2.90;;;5.80;99.90;;;5.57;100.00;101841.03;5191718;28;20061;-49
2023/12/19 05:41:32;;;;;;;5.70;3.13;;;5.80;99.90;;;5.58;100.00;101829.00;5201629;28;20041;-49
2023/12/19 05:44:06;;;;;;;6.57;3.25;;;5.80;99.90;;;5.56;100.00;101836.66;5200279;28;20088;-49
2023/12/19 05:46:38;;;;;;;6.13;2.80;;;5.80;99.90;;;5.55;100.00;101832.28;5199384;28;20056;-49
2023/12/19 05:49:10;;;;;;;7.13;3.10;;;5.80;99.90;;;5.54;100.00;101827.91;5182193;28;20072;-51
2023/12/19 05:51:43;;;;;;;7.70;2.88;;;5.80;99.90;;;5.52;100.00;101815.63;5197915;28;20049;-48
2023/12/19 05:54:15;;;;;;;5.68;3.05;;;5.70;99.90;;;5.50;100.00;101809.47;5195500;28;20054;-49
2023/12/19 05:56:48;;;;;;;6.70;2.83;;;5.70;99.90;;;5.47;100.00;101815.31;5198352;28;20415;-49
2023/12/19 05:59:22;;;;;;;6.78;3.10;;;5.70;99.90;;;5.45;100.00;101799.69;5199455;28;20075;-48
2023/12/19 06:01:54;;;;;;;6.30;2.67;;;5.70;99.90;;;5.44;100.00;101795.31;5198805;28;20079;-48
2023/12/19 06:04:27;;;;;;;5.72;2.70;;;5.70;99.90;;;5.43;100.00;101792.63;5183223;28;20416;-48
2023/12/19 06:06:59;;;;;;;5.28;2.70;;;5.70;99.90;;;5.42;100.00;101790.81;5196558;28;20042;-48
2023/12/19 06:09:32;;;;;;;5.28;2.72;;;5.70;99.90;;;5.44;100.00;101786.66;5198452;28;20052;-48
2023/12/19 06:12:06;;;;;;;6.03;2.63;;;5.70;99.90;;;5.48;100.00;101773.16;5182088;28;20050;-48
2023/12/19 06:14:40;;;;;;;5.25;2.50;;;5.70;99.90;;;5.48;100.00;101773.16;5181224;28;20107;-49
2023/12/19 06:17:12;;;;;;;6.95;2.42;;;5.70;99.90;;;5.49;100.00;101776.66;5200023;28;20049;-48
2023/12/19 06:19:44;;;;;;;4.82;2.28;;;5.70;99.90;;;5.49;100.00;101774.06;5181982;28;20057;-49
2023/12/19 06:22:17;;;;;;;5.78;2.65;;;5.70;99.90;;;5.47;100.00;101768.75;5196167;28;20050;-48
2023/12/19 06:24:50;;;;;;;5.72;2.53;;;5.70;99.90;;;5.45;100.00;101766.06;5195121;28;20056;-48
2023/12/19 06:27:22;;;;;;;5.43;2.58;;;5.70;99.90;;;5.49;100.00;101774.06;5215068;28;20053;-48
2023/12/19 06:29:56;;;;;;;6.20;2.55;;;5.70;99.90;;;5.54;100.00;101768.41;5203358;28;20045;-48
2023/12/19 06:32:28;;;;;;;5.85;2.50;;;5.80;99.90;;;5.55;100.00;101765.03;5185765;28;20565;-49
2023/12/19 06:35:03;;;;;;;5.32;2.30;;;5.80;99.90;;;5.53;100.00;101758.84;5199560;28;20042;-48
2023/12/19 06:37:36;;;;;;;;;;;5.70;99.90;;;5.54;100.00;101770.06;5201072;28;20056;-48
2023/12/19 06:40:09;;;;;;;5.75;2.58;;;5.70;99.90;;;5.57;100.00;101771.22;5200011;28;19924;-49
2023/12/19 06:42:42;;;;;;;4.20;2.17;;;5.80;99.90;;;5.59;100.00;101769.63;5200300;28;20049;-49
2023/12/19 06:45:16;;;;;;;4.07;1.83;;;5.80;99.90;;;5.60;100.00;101781.75;5186918;28;20053;-49
2023/12/19 06:47:48;;;;;;;5.72;2.25;;;5.80;99.90;;;5.62;100.00;101764.69;5186441;28;20053;-49
2023/12/19 06:50:21;;;;;;;4.30;2.42;;;5.80;99.90;;;5.68;100.00;101775.44;5202830;28;20057;-48
2023/12/19 06:52:54;;;;;;;4.82;2.00;;;5.90;99.90;;;5.68;100.00;101775.44;5202881;28;20042;-48
2023/12/19 06:55:27;;;;;;;5.13;2.17;;;5.90;99.90;;;5.71;100.00;101770.47;5200516;28;20062;-49
2023/12/19 06:57:59;;;;;;;4.05;1.67;;;5.90;99.90;;;5.69;100.00;101764.31;5199387;28;20052;-49
2023/12/19 07:00:33;;;;;;;5.03;2.05;;;5.90;99.90;;;5.68;100.00;101765.09;5202714;28;20048;-49
2023/12/19 07:03:06;;;;;;;5.47;1.88;;;5.90;99.90;;;5.70;100.00;101763.50;5217296;28;20501;-49
2023/12/19 07:05:38;;;;;;;4.03;2.10;;;5.90;99.90;;;5.72;100.00;101773.97;5185079;28;20045;-48
2023/12/19 07:08:10;;;;;;;5.70;2.10;;;5.90;99.90;;;5.77;100.00;101767.44;5192667;28;20065;-48
2023/12/19 07:10:43;;;;;;;5.38;2.78;;;6.00;99.90;;;5.77;100.00;101759.66;5193744;28;20049;-49
2023/12/19 07:13:15;;;;;;;4.95;2.28;;;6.00;99.90;;;5.76;100.00;101767.31;5199073;28;20065;-48
2023/12/19 07:15:49;;;;;;;4.93;2.17;;;6.00;99.90;;;5.78;100.00;101765.72;5185372;28;20052;-49
2023/12/19 07:18:22;;;;;;;4.75;2.03;;;6.00;99.90;;;5.76;100.00;101763.03;5218431;28;20049;-48
2023/12/19 07:20:55;;;;;;;3.80;2.20;;;6.00;99.90;;;5.81;100.00;101766.84;5179992;28;20049;-49
2023/12/19 07:23:28;;;;;;;4.97;2.25;;;6.00;99.90;;;5.83;100.00;101756.59;5200636;28;20057;-49
2023/12/19 07:26:00;;;;;;;3.38;1.90;;;6.00;99.90;;;5.84;100.00;101758.41;5185906;28;20452;-50
2023/12/19 07:28:33;;;;;;;4.53;1.95;;;6.00;99.90;;;5.87;100.00;101761.22;5199834;28;20046;-49
2023/12/19 07:31:06;;;;;;;3.67;1.85;;;6.10;99.90;;;5.88;100.00;101752.66;5190958;28;20049;-49
2023/12/19 07:33:39;;;;;;;5.68;2.00;;;6.10;99.90;;;5.89;100.00;101752.75;5185194;28;20045;-49
2023/12/19 07:36:13;;;;;;;3.80;1.98;;;6.10;99.90;;;5.90;100.00;101751.06;5185018;28;20109;-49
2023/12/19 07:38:45;;;;;;;3.03;1.60;;;6.10;99.90;;;5.90;100.00;101735.53;5202292;28;20642;-49
2023/12/19 07:41:17;;;;;;;4.88;1.95;;;6.10;99.90;;;5.90;100.00;101731.25;5191235;28;20058;-50
2023/12/19 07:43:57;;;;;;;4.03;2.00;;;6.10;99.90;;;5.93;100.00;101731.50;5201694;28;20041;-49
2023/12/19 07:46:30;;;;;;;3.75;1.95;;;6.10;99.90;;;5.94;100.00;101724.63;5199781;28;20068;-49
2023/12/19 07:49:03;;;;;;;3.03;1.55;;;6.10;99.90;;;5.97;100.00;101722.25;5185226;28;20532;-49
2023/12/19 07:51:35;;;;;;;2.92;1.92;;;6.10;99.90;;;5.95;100.00;101721.25;5199167;28;20517;-50
2023/12/19 07:54:08;;;;;;;3.97;1.98;;;6.20;99.90;;;5.98;100.00;101713.69;5196907;28;20045;-48
2023/12/19 07:56:43;;;;;;;2.53;1.48;;;6.20;99.90;;;5.99;100.00;101720.66;5200849;28;20049;-50
2023/12/19 07:59:16;;;;;;;2.42;1.58;;;6.20;99.90;;;6.00;100.00;101701.75;5178531;28;20053;-49
2023/12/19 08:01:50;;;;;;;3.67;1.98;;;6.20;99.90;;;6.03;100.00;101690.69;5202797;28;20057;-49
2023/12/19 08:04:22;;;;;;;2.35;1.60;;;6.20;99.90;;;6.07;100.00;101709.16;5203283;28;20041;-49
2023/12/19 08:06:54;;;;;;;4.22;1.85;;;6.20;99.90;;;6.09;100.00;101702.38;5199361;28;20141;-49
2023/12/19 08:09:29;;;;;;;4.53;2.10;;;6.30;99.90;;;6.11;100.00;101700.75;5209869;28;20050;-48
2023/12/19 08:12:01;;;;;;;2.50;1.50;;;6.30;99.90;;;6.10;100.00;101692.91;5186701;28;20356;-49
2023/12/19 08:14:33;;;;;;;4.65;1.63;;;6.30;99.90;;;6.10;100.00;101701.56;5184366;28;20056;-49
2023/12/19 08:17:07;;;;;;;2.60;1.58;;;6.30;99.90;;;6.12;100.00;101701.66;5177702;28;20509;-49
2023/12/19 08:19:39;;;;;;;3.15;1.67;;;6.30;99.90;;;6.15;100.00;101696.72;5178691;28;20053;-48
2023/12/19 08:22:12;;;;;;;3.03;1.58;;;6.30;99.90;;;6.17;100.00;101706.34;5185004;28;20076;-49
2023/12/19 08:24:44;;;;;;;3.72;1.98;;;6.40;99.90;;;6.18;100.00;101705.56;5209259;28;20451;-49
2023/12/19 08:27:18;;;;;;;3.58;1.85;;;6.40;99.90;;;6.20;100.00;101696.22;5185000;28;20057;-49
2023/12/19 08:29:53;;;;;;;4.50;1.50;;;6.40;99.90;;;6.22;100.00;101699.78;5211797;28;20064;-48
2023/12/19 08:32:27;;;;;;;3.08;1.83;;;6.40;99.90;;;6.29;100.00;101695.91;5218666;28;20053;-49
2023/12/19 08:34:59;;;;;;;3.30;1.83;;;6.40;99.90;;;6.33;100.00;101716.06;5201929;28;20064;-49
2023/12/19 08:37:32;;;;;;;3.38;2.00;;;6.50;99.90;;;6.36;100.00;101713.66;5200506;28;20057;-49
2023/12/19 08:40:08;;;;;;;4.10;2.10;;;6.50;99.90;;;6.37;100.00;101707.69;5167527;28;20103;-49
2023/12/19 08:42:41;;;;;;;4.68;1.83;;;6.50;99.90;;;6.39;100.00;101708.69;5183612;28;20057;-49
2023/12/19 08:45:17;;;;;;;2.95;1.52;;;6.50;99.90;;;6.42;100.00;101718.34;5184245;28;20409;-49
2023/12/19 08:47:51;;;;;;;2.88;1.70;;;6.60;99.90;;;6.82;100.00;101716.66;5224796;28;20053;-48
2023/12/19 08:50:24;;;;;;;3.95;1.88;;;6.90;99.90;;;7.00;100.00;101716.94;5180684;28;20050;-48
2023/12/19 08:52:56;;;;;;;2.80;1.33;;;7.10;99.90;;;7.38;100.00;101710.69;5209962;28;20445;-48
2023/12/19 08:55:30;;;;;;;2.50;1.45;;;7.40;99.90;;;7.58;100.00;101702.44;5198842;28;20052;-49
2023/12/19 08:58:05;;;;;;;2.75;1.70;;;7.70;99.90;;;7.42;100.00;101694.50;5184343;28;20049;-48
2023/12/19 09:00:37;;;;;;;3.83;1.63;;;7.60;99.90;;;7.26;100.00;101682.28;5200403;28;20064;-49
2023/12/19 09:03:11;;;;;;;2.78;1.27;;;7.60;99.90;;;7.15;100.00;101676.41;5183913;28;20385;-49
2023/12/19 09:05:44;;;;;;;3.42;1.88;;;7.40;99.90;;;7.03;100.00;101680.84;5190720;28;20045;-51
2023/12/19 09:08:17;;;;;;;3.97;1.60;;;7.30;99.90;;;6.94;100.00;101672.47;5179695;28;20416;-50
2023/12/19 09:10:49;;;;;;;3.25;1.63;;;7.20;99.90;;;6.90;100.00;101678.25;5203310;28;20880;-48
2023/12/19 09:13:22;;;;;;;6.05;1.70;;;7.10;99.90;;;6.80;100.00;101672.50;5177732;28;20052;-49
2023/12/19 09:15:56;;;;;;;3.15;1.58;;;7.00;99.90;;;6.78;100.00;101670.59;5196258;28;20049;-50
2023/12/19 09:18:30;;;;;;;3.63;1.80;;;7.00;99.90;;;6.76;100.00;101670.50;5213094;28;20041;-49
2023/12/19 09:21:03;;;;;;;4.45;2.05;;;7.00;99.90;;;6.74;100.00;101661.75;5212938;28;20049;-49
2023/12/19 09:23:35;;;;;;;3.53;1.85;;;6.90;99.90;;;6.69;100.00;101668.31;5211381;28;20505;-49
2023/12/19 09:26:07;;;;;;;4.25;2.00;;;6.90;99.90;;;6.67;100.00;101667.34;5181397;28;20057;-49
2023/12/19 09:28:40;;;;;;;3.25;1.55;;;6.90;99.90;;;6.67;100.00;101669.03;5174101;28;20408;-48
2023/12/19 09:31:12;;;;;;;3.28;1.65;;;6.90;99.90;;;6.66;100.00;101668.16;5184015;28;20057;-49
2023/12/19 09:33:46;;;;;;;2.75;1.92;;;6.80;99.90;;;6.71;100.00;101671.91;5198604;28;20053;-50
2023/12/19 09:36:22;;;;;;;3.25;1.73;;;6.90;99.90;;;6.74;100.00;101666.94;5187731;28;20062;-48
2023/12/19 09:38:55;;;;;;;6.72;2.00;;;6.90;99.90;;;6.71;100.00;101661.53;5183094;28;20516;-50
2023/12/19 09:41:28;;;;;;;3.75;1.80;;;6.90;99.90;;;6.70;100.00;101657.16;5182889;28;20096;-49
2023/12/19 09:44:00;;;;;;;4.28;1.80;;;6.90;99.90;;;6.71;100.00;101666.72;5199168;28;20052;-50
2023/12/19 09:46:34;;;;;;;2.97;1.60;;;6.90;99.90;;;6.71;100.00;101651.16;5197730;28;20085;-49
2023/12/19 09:49:09;;;;;;;1.77;1.23;;;6.90;99.90;;;6.68;100.00;101651.00;5183094;28;20041;-48
2023/12/19 09:51:44;;;;;;;4.45;1.80;;;6.80;99.90;;;6.67;100.00;101644.03;5181968;28;20515;-48
2023/12/19 09:54:21;;;;;;;3.95;1.70;;;6.80;99.90;;;6.68;100.00;101647.50;5181140;28;20053;-49
2023/12/19 09:56:56;;;;;;;2.75;1.67;;;6.90;99.90;;;6.69;100.00;101642.41;5199290;28;20046;-48
2023/12/19 09:59:29;;;;;;;4.28;1.63;;;6.90;99.90;;;6.71;100.00;101639.91;5187658;28;20108;-49
2023/12/19 10:02:01;;;;;;;4.47;1.42;;;6.90;99.90;;;6.69;100.00;101621.69;5202247;28;20048;-47
2023/12/19 10:04:35;;;;;;;4.55;1.73;;;6.90;99.90;;;6.70;100.00;101620.88;5188799;28;20046;-49
2023/12/19 10:07:07;;;;;;;1.95;1.38;;;6.90;99.90;;;6.70;100.00;101623.47;5204565;28;20041;-48
2023/12/19 10:09:54;;;;;;;5.93;1.63;;;6.90;99.90;;;6.75;100.00;101622.06;5186581;28;20160;-49
2023/12/19 10:12:27;;;;;;;4.85;1.65;;;6.90;99.90;;;6.74;100.00;101599.56;5185747;28;20057;-50
2023/12/19 10:15:12;;;;;;;3.15;1.48;;;6.90;99.90;;;6.76;100.00;101610.00;5204468;28;20101;-48
2023/12/19 10:18:04;;;;;;;1.85;1.45;;;6.90;99.90;;;6.78;100.00;101596.38;5186895;28;20409;-48
2023/12/19 10:20:38;;;;;;;2.55;1.80;;;7.00;99.90;;;6.84;100.00;101587.16;5186595;28;20061;-49
2023/12/19 10:23:10;;;;;;;3.40;1.30;;;7.00;99.90;;;6.82;100.00;101578.41;5192214;28;20416;-48
2023/12/19 10:25:43;;;;;;;3.20;1.42;;;7.00;99.90;;;6.78;100.00;101562.69;5209532;28;20516;-49
2023/12/19 10:28:15;;;;;;;3.42;1.63;;;7.00;99.90;;;6.80;100.00;101574.03;5185900;28;20058;-49
2023/12/19 10:30:47;;;;;;;3.35;1.50;;;7.00;99.90;;;6.86;100.00;101562.25;5184513;28;20152;-50
2023/12/19 10:33:20;;;;;;;2.45;1.42;;;7.00;99.90;;;6.89;100.00;101541.69;5182746;28;20049;-49
2023/12/19 10:35:54;;;;;;;6.53;1.27;;;7.00;99.90;;;6.92;100.00;101541.91;5202724;28;20527;-49
2023/12/19 10:38:26;;;;;;;2.83;1.45;;;7.10;99.90;;;6.93;100.00;101539.41;5184806;28;20041;-51
2023/12/19 10:41:03;;;;;;;4.40;1.90;;;7.10;99.90;;;6.98;100.00;101542.28;5203711;28;20512;-48
2023/12/19 10:43:39;;;;;;;4.43;1.50;;;7.10;99.90;;;7.38;100.00;101518.72;5185580;28;20052;-48